Time;durP1;ratioP1;P1;durP2;ratioP2;P2;SDS_P1;SDS_P2;PMS_P1;PMS_P2;Temp;Humidity;BMP_temperature;BMP_pressure;BME280_temperature;BME280_humidity;BME280_pressure;Samples;Min_cycle;Max_cycle;Signal;HPM_P1;HPM_P2
2021/07/23 00:02:13;;;;;;;12.25;9.63;;;14.10;99.90;;;;;;5026731;28;20567;-49
2021/07/23 00:04:39;;;;;;;11.75;9.98;;;14.20;99.90;;;;;;5029047;28;20045;-45
2021/07/23 00:07:05;;;;;;;11.68;10.27;;;14.20;99.90;;;;;;5034745;28;20053;-52
2021/07/23 00:09:31;;;;;;;11.45;9.63;;;14.20;99.90;;;;;;5028794;28;20052;-47
2021/07/23 00:11:57;;;;;;;11.23;9.90;;;14.20;99.90;;;;;;5022502;28;20157;-50
2021/07/23 00:14:25;;;;;;;11.70;10.07;;;14.30;99.90;;;;;;5026399;28;20054;-47
2021/07/23 00:16:51;;;;;;;10.80;9.70;;;14.30;99.90;;;;;;5011773;28;20049;-48
2021/07/23 00:19:17;;;;;;;11.95;10.02;;;14.40;99.90;;;;;;5019438;28;20073;-49
2021/07/23 00:21:43;;;;;;;12.55;9.88;;;14.40;99.90;;;;;;5034931;28;20045;-43
2021/07/23 00:24:09;;;;;;;12.05;9.55;;;14.40;99.90;;;;;;5027117;28;20122;-49
2021/07/23 00:26:35;;;;;;;14.70;10.35;;;14.50;99.90;;;;;;5028501;28;20057;-49
2021/07/23 00:29:02;;;;;;;10.90;9.40;;;14.50;99.90;;;;;;5027544;28;20061;-52
2021/07/23 00:31:29;;;;;;;11.82;10.38;;;14.50;99.90;;;;;;5014181;28;20486;-48
2021/07/23 00:33:55;;;;;;;15.07;10.25;;;14.50;99.90;;;;;;5018295;28;20042;-47
2021/07/23 00:36:21;;;;;;;12.18;9.95;;;14.50;99.90;;;;;;5027584;28;20064;-48
2021/07/23 00:38:47;;;;;;;10.75;9.65;;;14.60;99.90;;;;;;5037785;28;20049;-53
2021/07/23 00:41:14;;;;;;;11.32;9.43;;;14.60;99.90;;;;;;5031169;28;20052;-52
2021/07/23 00:43:40;;;;;;;11.98;10.32;;;14.60;99.90;;;;;;5023876;28;20065;-47
2021/07/23 00:46:06;;;;;;;13.00;9.40;;;14.70;99.90;;;;;;5028568;28;20606;-46
2021/07/23 00:48:33;;;;;;;9.98;8.98;;;14.80;99.90;;;;;;5027448;28;20144;-51
2021/07/23 00:51:00;;;;;;;13.98;9.20;;;14.80;99.90;;;;;;5023687;28;20077;-55
2021/07/23 00:53:26;;;;;;;11.07;9.27;;;14.90;99.90;;;;;;5031480;28;20056;-49
2021/07/23 00:55:58;;;;;;;11.70;9.23;;;15.00;99.90;;;;;;5035320;28;20073;-53
2021/07/23 00:58:30;;;;;;;9.25;8.35;;;15.10;99.90;;;;;;5028704;28;20045;-50
2021/07/23 01:00:59;;;;;;;11.30;8.90;;;15.10;99.90;;;;;;5024914;28;20088;-50
2021/07/23 01:03:31;;;;;;;9.80;8.45;;;15.10;99.90;;;;;;5033405;28;20046;-46
2021/07/23 01:05:58;;;;;;;12.85;9.43;;;15.10;99.90;;;;;;5023340;28;20053;-45
2021/07/23 01:08:24;;;;;;;10.63;9.02;;;15.20;99.90;;;;;;5020284;28;20060;-50
2021/07/23 01:10:51;;;;;;;10.57;8.73;;;15.20;99.90;;;;;;5049088;28;20037;-55
2021/07/23 01:13:39;;;;;;;11.73;8.98;;;15.20;99.90;;;;;;5025206;28;20041;-49
2021/07/23 01:16:07;;;;;;;11.23;9.65;;;15.20;99.90;;;;;;5010195;28;20399;-48
2021/07/23 01:18:34;;;;;;;11.27;9.68;;;15.20;99.90;;;;;;5025395;28;20049;-48
2021/07/23 01:21:02;;;;;;;9.90;8.90;;;15.20;99.90;;;;;;5026453;28;20466;-47
2021/07/23 01:23:33;;;;;;;11.63;10.48;;;15.20;99.90;;;;;;5032629;28;20111;-48
2021/07/23 01:26:05;;;;;;;12.00;8.95;;;15.20;99.90;;;;;;5026534;28;20158;-52
2021/07/23 01:28:35;;;;;;;10.88;9.77;;;15.20;99.90;;;;;;5041175;28;20065;-50
2021/07/23 01:31:05;;;;;;;12.15;10.77;;;15.10;99.90;;;;;;5042426;28;20525;-47
2021/07/23 01:33:36;;;;;;;12.23;10.40;;;15.20;99.90;;;;;;5022388;28;20128;-46
2021/07/23 01:36:04;;;;;;;10.85;9.73;;;15.10;99.90;;;;;;5017424;28;20057;-50
2021/07/23 01:38:35;;;;;;;12.02;10.35;;;15.10;99.90;;;;;;5039686;28;20084;-53
2021/07/23 01:41:02;;;;;;;13.23;10.50;;;15.20;99.90;;;;;;5026888;28;20057;-51
2021/07/23 01:43:30;;;;;;;11.90;10.35;;;15.10;99.90;;;;;;5044547;28;20052;-49
2021/07/23 01:45:59;;;;;;;13.98;11.13;;;15.20;99.90;;;;;;5030725;28;20045;-48
2021/07/23 01:48:32;;;;;;;12.27;9.95;;;15.10;99.90;;;;;;5019537;28;20057;-50
2021/07/23 01:50:58;;;;;;;12.18;10.95;;;15.10;99.90;;;;;;5026184;28;20421;-50
2021/07/23 01:53:25;;;;;;;12.57;11.27;;;15.10;99.90;;;;;;5022335;28;20129;-47
2021/07/23 01:55:58;;;;;;;11.55;9.88;;;15.20;99.90;;;;;;5038731;28;20079;-47
2021/07/23 01:58:24;;;;;;;13.05;10.50;;;15.20;99.90;;;;;;5024777;28;20045;-49
2021/07/23 02:00:57;;;;;;;12.43;11.25;;;15.20;99.90;;;;;;5031092;28;20412;-47
2021/07/23 02:03:27;;;;;;;12.10;10.85;;;15.30;99.90;;;;;;5036209;28;20164;-55
2021/07/23 02:05:54;;;;;;;12.65;10.70;;;15.30;99.90;;;;;;5024746;28;20061;-47
2021/07/23 02:08:20;;;;;;;12.25;10.30;;;15.30;99.90;;;;;;5042338;28;20072;-50
2021/07/23 02:10:48;;;;;;;14.02;10.88;;;15.20;99.90;;;;;;5039815;28;20513;-51
2021/07/23 02:13:14;;;;;;;11.48;10.27;;;15.20;99.90;;;;;;5026000;28;20045;-49
2021/07/23 02:15:44;;;;;;;13.13;11.57;;;15.20;99.90;;;;;;5024666;28;20060;-49
2021/07/23 02:18:16;;;;;;;12.70;11.02;;;15.20;99.90;;;;;;5026372;28;20405;-48
2021/07/23 02:20:44;;;;;;;13.05;10.18;;;15.30;99.90;;;;;;5026295;28;20045;-49
2021/07/23 02:23:12;;;;;;;11.63;10.43;;;15.30;99.90;;;;;;5026085;28;20042;-52
2021/07/23 02:25:43;;;;;;;13.68;11.45;;;15.30;99.90;;;;;;5029802;28;20054;-52
2021/07/23 02:28:11;;;;;;;10.93;9.80;;;15.30;99.90;;;;;;5020738;28;20034;-45
2021/07/23 02:30:40;;;;;;;12.32;10.77;;;15.30;99.90;;;;;;5033241;28;20545;-51
2021/07/23 02:33:23;;;;;;;13.52;11.35;;;15.30;99.90;;;;;;5032278;28;20038;-46
2021/07/23 02:35:53;;;;;;;12.82;11.38;;;15.30;99.90;;;;;;5024271;28;20041;-52
2021/07/23 02:38:20;;;;;;;13.85;10.75;;;15.30;99.90;;;;;;5025353;28;20061;-53
2021/07/23 02:40:54;;;;;;;14.75;11.55;;;15.30;99.90;;;;;;5017358;28;20069;-48
2021/07/23 02:43:21;;;;;;;13.45;11.48;;;15.30;99.90;;;;;;5019265;28;20049;-50
2021/07/23 02:45:49;;;;;;;13.23;11.73;;;15.30;99.90;;;;;;5020652;28;20042;-46
2021/07/23 02:48:15;;;;;;;13.55;10.88;;;15.40;99.90;;;;;;5026363;28;20068;-50
2021/07/23 02:50:42;;;;;;;12.73;10.93;;;15.40;99.90;;;;;;5025451;28;20124;-48
2021/07/23 02:53:10;;;;;;;14.00;11.75;;;15.40;99.90;;;;;;5026170;28;20049;-50
2021/07/23 02:55:36;;;;;;;11.98;10.48;;;15.40;99.90;;;;;;5013856;28;20512;-51
2021/07/23 02:58:04;;;;;;;13.13;11.32;;;15.40;99.90;;;;;;5040016;28;20107;-46
2021/07/23 03:00:32;;;;;;;13.32;11.60;;;15.50;99.90;;;;;;5030979;28;20052;-47
2021/07/23 03:03:04;;;;;;;13.10;11.30;;;15.50;99.90;;;;;;5035839;28;20049;-51
2021/07/23 03:05:30;;;;;;;14.18;12.38;;;15.50;99.90;;;;;;5025461;28;20056;-53
2021/07/23 03:07:59;;;;;;;15.25;11.30;;;15.50;99.90;;;;;;5041496;28;20054;-51
2021/07/23 03:10:28;;;;;;;14.82;12.80;;;15.60;99.90;;;;;;5034019;28;20132;-50
2021/07/23 03:12:54;;;;;;;13.15;11.75;;;15.60;99.90;;;;;;5028486;28;20089;-52
2021/07/23 03:15:21;;;;;;;13.93;11.73;;;15.60;99.90;;;;;;5028308;28;20053;-49
2021/07/23 03:17:49;;;;;;;14.52;12.27;;;15.60;99.90;;;;;;5028735;28;20045;-54
2021/07/23 03:20:18;;;;;;;14.10;12.70;;;15.60;99.90;;;;;;5043687;28;20123;-54
2021/07/23 03:22:45;;;;;;;13.93;12.45;;;15.60;99.90;;;;;;5011896;28;20409;-48
2021/07/23 03:25:29;;;;;;;14.93;13.38;;;15.60;99.90;;;;;;5026955;28;20045;-48
2021/07/23 03:28:03;;;;;;;16.15;13.73;;;15.60;99.90;;;;;;5029975;28;20049;-50
2021/07/23 03:30:40;;;;;;;14.02;12.43;;;15.60;99.90;;;;;;5014732;28;20049;-48
2021/07/23 03:33:07;;;;;;;19.58;13.07;;;15.60;99.90;;;;;;5014729;28;20073;-53
2021/07/23 03:35:35;;;;;;;17.52;12.93;;;15.70;99.90;;;;;;5001674;28;20048;-48
2021/07/23 03:38:05;;;;;;;14.13;11.93;;;15.70;99.90;;;;;;5024997;28;20053;-48
2021/07/23 03:40:32;;;;;;;17.42;13.30;;;15.60;99.90;;;;;;5022494;28;20049;-53
2021/07/23 03:43:06;;;;;;;16.83;12.73;;;15.70;99.90;;;;;;5044106;28;20437;-46
2021/07/23 03:45:43;;;;;;;15.25;12.43;;;15.70;99.90;;;;;;5039900;28;20076;-51
2021/07/23 03:48:14;;;;;;;18.00;13.25;;;15.70;99.90;;;;;;5044571;28;20061;-45
2021/07/23 03:50:45;;;;;;;14.52;13.10;;;15.80;99.90;;;;;;5028072;28;20072;-45
2021/07/23 03:53:13;;;;;;;14.80;13.30;;;15.80;99.90;;;;;;5030058;28;20071;-47
2021/07/23 03:55:45;;;;;;;16.27;13.43;;;15.90;99.90;;;;;;5025709;28;20486;-48
2021/07/23 03:58:19;;;;;;;16.27;12.77;;;15.90;99.90;;;;;;5027825;28;20111;-53
2021/07/23 04:00:45;;;;;;;13.73;12.35;;;15.90;99.90;;;;;;5023747;28;20073;-48
2021/07/23 04:03:12;;;;;;;17.92;13.52;;;16.00;99.90;;;;;;5031233;28;20088;-50
2021/07/23 04:05:38;;;;;;;15.73;12.80;;;16.00;99.90;;;;;;5029192;28;20045;-53
2021/07/23 04:08:06;;;;;;;16.48;12.63;;;16.00;99.90;;;;;;5046799;28;20045;-47
2021/07/23 04:10:35;;;;;;;13.50;12.20;;;16.10;99.90;;;;;;5027612;28;20119;-45
2021/07/23 04:13:03;;;;;;;15.02;13.15;;;16.00;99.90;;;;;;5022487;28;20148;-55
2021/07/23 04:15:36;;;;;;;14.05;12.40;;;16.10;99.90;;;;;;5034972;28;20037;-53
2021/07/23 04:18:11;;;;;;;13.90;11.80;;;16.20;99.90;;;;;;5044662;28;20079;-50
2021/07/23 04:20:47;;;;;;;16.83;12.77;;;16.20;99.90;;;;;;5014666;28;20052;-57
2021/07/23 04:23:13;;;;;;;15.38;12.15;;;16.30;99.90;;;;;;5010633;28;20534;-55
2021/07/23 04:25:39;;;;;;;13.65;11.88;;;16.20;99.90;;;;;;5044913;28;20752;-54
2021/07/23 04:28:07;;;;;;;13.93;11.38;;;16.30;99.90;;;;;;5024575;28;20068;-54
2021/07/23 04:30:42;;;;;;;12.60;11.27;;;16.30;99.90;;;;;;5051004;28;20037;-54
2021/07/23 04:33:19;;;;;;;13.30;11.85;;;16.40;99.90;;;;;;5027237;28;20049;-55
2021/07/23 04:36:02;;;;;;;12.05;10.23;;;16.30;99.90;;;;;;5040291;28;20135;-54
2021/07/23 04:38:29;;;;;;;12.63;10.60;;;16.40;99.90;;;;;;5028006;28;20108;-55
2021/07/23 04:40:58;;;;;;;13.80;11.02;;;16.40;99.90;;;;;;5025961;28;20064;-55
2021/07/23 04:43:38;;;;;;;13.45;11.43;;;16.40;99.90;;;;;;5032681;28;20045;-56
2021/07/23 04:46:08;;;;;;;13.00;10.98;;;16.40;99.90;;;;;;5033641;28;20146;-55
2021/07/23 04:48:35;;;;;;;12.80;10.75;;;16.50;99.90;;;;;;5009256;28;20091;-53
2021/07/23 04:51:09;;;;;;;13.23;10.73;;;16.50;99.90;;;;;;5026862;28;20418;-57
2021/07/23 04:53:54;;;;;;;11.70;10.48;;;16.50;99.90;;;;;;5026759;28;20063;-56
2021/07/23 04:56:53;;;;;;;14.30;11.00;;;16.50;99.90;;;;;;5025395;28;20076;-55
2021/07/23 04:59:20;;;;;;;11.70;9.48;;;16.50;99.90;;;;;;5030682;28;20061;-55
2021/07/23 05:01:46;;;;;;;14.38;10.20;;;16.60;99.90;;;;;;5025520;28;20046;-54
2021/07/23 05:04:15;;;;;;;12.77;9.77;;;16.50;99.90;;;;;;5035956;28;20644;-55
2021/07/23 05:06:42;;;;;;;11.48;9.95;;;16.60;99.90;;;;;;5008552;28;20056;-57
2021/07/23 05:09:08;;;;;;;10.85;9.55;;;16.60;99.90;;;;;;5011370;28;20132;-51
2021/07/23 05:11:41;;;;;;;11.27;9.82;;;16.60;99.90;;;;;;5021415;28;20901;-55
2021/07/23 05:14:07;;;;;;;11.68;9.55;;;16.60;99.90;;;;;;5024503;28;20053;-57
2021/07/23 05:16:34;;;;;;;14.70;10.20;;;16.70;99.90;;;;;;5024630;28;20060;-54
2021/07/23 05:19:10;;;;;;;11.98;10.52;;;16.70;99.90;;;;;;5025924;28;20688;-54
2021/07/23 05:21:37;;;;;;;13.20;9.93;;;16.70;99.90;;;;;;5025290;28;20568;-60
2021/07/23 05:24:07;;;;;;;13.85;10.85;;;16.70;99.90;;;;;;5024089;28;20084;-59
2021/07/23 05:26:36;;;;;;;16.45;14.35;;;16.70;99.90;;;;;;5024672;28;20115;-56
2021/07/23 05:29:07;;;;;;;17.98;12.38;;;16.80;99.90;;;;;;5022474;28;20092;-55
2021/07/23 05:31:34;;;;;;;12.23;9.33;;;16.80;99.90;;;;;;4989559;28;20065;-58
2021/07/23 05:34:02;;;;;;;12.93;10.15;;;16.80;99.90;;;;;;5012451;28;20307;-56
2021/07/23 05:36:29;;;;;;;23.70;19.63;;;16.80;99.90;;;;;;5027615;28;20780;-54
2021/07/23 05:38:55;;;;;;;13.30;8.68;;;16.80;99.90;;;;;;5027167;28;20038;-54
2021/07/23 05:41:22;;;;;;;13.10;9.55;;;16.80;99.90;;;;;;5019397;28;20041;-53
2021/07/23 05:43:48;;;;;;;11.90;9.85;;;16.80;99.90;;;;;;5028395;28;20064;-60
2021/07/23 05:46:15;;;;;;;11.73;9.80;;;16.90;99.90;;;;;;5027272;28;20045;-52
2021/07/23 05:48:41;;;;;;;13.45;10.13;;;16.90;99.90;;;;;;5043400;28;20041;-54
2021/07/23 05:51:12;;;;;;;11.65;10.10;;;16.90;99.90;;;;;;5027254;28;20602;-55
2021/07/23 05:53:39;;;;;;;12.60;9.75;;;16.90;99.90;;;;;;5032062;28;20068;-57
2021/07/23 05:56:05;;;;;;;11.35;9.75;;;17.00;99.90;;;;;;5038585;28;20490;-54
2021/07/23 05:58:32;;;;;;;16.88;12.60;;;17.00;99.90;;;;;;5028204;28;20086;-52
2021/07/23 06:00:58;;;;;;;20.52;18.38;;;17.00;99.90;;;;;;5024330;28;20053;-57
2021/07/23 06:03:24;;;;;;;12.88;10.38;;;17.10;99.90;;;;;;5026631;28;20045;-53
2021/07/23 06:05:50;;;;;;;13.25;9.70;;;17.10;99.90;;;;;;5026005;28;20160;-55
2021/07/23 06:08:16;;;;;;;14.85;9.95;;;17.10;99.90;;;;;;5026602;28;20081;-53
2021/07/23 06:10:43;;;;;;;19.45;14.13;;;17.10;99.90;;;;;;5026189;28;20452;-61
2021/07/23 06:13:09;;;;;;;10.20;8.27;;;17.20;99.90;;;;;;5024989;28;20553;-55
2021/07/23 06:15:35;;;;;;;11.73;9.60;;;17.20;99.90;;;;;;5031418;28;20046;-54
2021/07/23 06:18:01;;;;;;;14.13;8.55;;;17.20;99.90;;;;;;5033482;28;20057;-56
2021/07/23 06:20:27;;;;;;;12.05;9.27;;;17.30;99.90;;;;;;5042179;28;20056;-57
2021/07/23 06:22:58;;;;;;;9.35;8.35;;;17.30;99.90;;;;;;5026828;28;20057;-55
2021/07/23 06:25:24;;;;;;;12.82;9.48;;;17.30;99.90;;;;;;5022995;28;20056;-68
2021/07/23 06:27:52;;;;;;;15.80;12.55;;;17.40;99.90;;;;;;5026861;28;20051;-56
2021/07/23 06:30:18;;;;;;;12.30;9.13;;;17.40;99.90;;;;;;5027022;28;20140;-56
2021/07/23 06:32:45;;;;;;;13.00;9.13;;;17.40;99.90;;;;;;5026563;28;20068;-59
2021/07/23 06:35:11;;;;;;;17.90;16.00;;;17.50;99.90;;;;;;5031764;28;20482;-54
2021/07/23 06:37:37;;;;;;;10.43;7.72;;;17.50;99.90;;;;;;5025811;28;20057;-52
2021/07/23 06:40:04;;;;;;;13.02;8.88;;;17.50;99.90;;;;;;5025976;28;20061;-54
2021/07/23 06:42:31;;;;;;;10.93;8.05;;;17.50;99.90;;;;;;5033691;28;20102;-58
2021/07/23 06:44:58;;;;;;;10.57;9.13;;;17.50;99.90;;;;;;5028978;28;20072;-56
2021/07/23 06:47:24;;;;;;;12.50;8.40;;;17.50;99.90;;;;;;5033132;28;20061;-53
2021/07/23 06:49:51;;;;;;;13.25;9.23;;;17.60;99.90;;;;;;5029042;28;20084;-58
2021/07/23 06:52:19;;;;;;;12.65;9.13;;;17.50;99.90;;;;;;5030326;28;20049;-55
2021/07/23 06:54:45;;;;;;;10.05;7.70;;;17.60;99.90;;;;;;5037803;28;20072;-49
2021/07/23 06:57:12;;;;;;;17.48;13.85;;;17.60;99.90;;;;;;5030466;28;20053;-57
2021/07/23 06:59:39;;;;;;;19.77;14.13;;;17.70;99.90;;;;;;5030888;28;20136;-53
2021/07/23 07:02:05;;;;;;;9.75;8.50;;;17.70;99.90;;;;;;5030677;28;20050;-53
2021/07/23 07:04:31;;;;;;;10.05;7.65;;;17.70;99.90;;;;;;5052577;28;20091;-52
2021/07/23 07:07:04;;;;;;;10.20;8.45;;;17.80;99.90;;;;;;5030807;28;20091;-57
2021/07/23 07:09:36;;;;;;;21.48;19.17;;;17.80;99.90;;;;;;5030423;28;20037;-50
2021/07/23 07:12:05;;;;;;;14.40;9.07;;;17.80;99.90;;;;;;5024837;28;20045;-52
2021/07/23 07:14:31;;;;;;;11.93;9.57;;;17.90;99.90;;;;;;5032329;28;20045;-51
2021/07/23 07:16:59;;;;;;;10.75;9.63;;;17.90;99.90;;;;;;5032833;28;20468;-52
2021/07/23 07:19:26;;;;;;;15.63;11.90;;;17.90;99.90;;;;;;5047451;28;20386;-51
2021/07/23 07:21:52;;;;;;;14.18;10.05;;;17.90;99.90;;;;;;5030909;28;20068;-49
2021/07/23 07:24:21;;;;;;;12.93;9.73;;;17.90;99.90;;;;;;5030674;28;20045;-48
2021/07/23 07:26:49;;;;;;;16.52;10.82;;;17.90;99.90;;;;;;5034978;28;20050;-51
2021/07/23 07:29:16;;;;;;;12.60;8.68;;;17.80;99.90;;;;;;5030920;28;20053;-48
2021/07/23 07:31:43;;;;;;;13.00;9.25;;;17.90;99.90;;;;;;5037395;28;20042;-56
2021/07/23 07:34:09;;;;;;;12.15;9.38;;;18.00;99.90;;;;;;5030018;28;20060;-54
2021/07/23 07:36:39;;;;;;;11.35;9.80;;;18.00;99.90;;;;;;5030088;28;20057;-53
2021/07/23 07:39:05;;;;;;;11.10;9.38;;;18.00;99.90;;;;;;5030118;28;20136;-51
2021/07/23 07:41:31;;;;;;;14.60;10.00;;;18.00;99.90;;;;;;5029971;28;20057;-53
2021/07/23 07:44:03;;;;;;;14.65;12.52;;;18.00;99.90;;;;;;5036518;28;20052;-59
2021/07/23 07:46:33;;;;;;;12.55;11.23;;;18.00;99.90;;;;;;4995653;28;20053;-59
2021/07/23 07:49:00;;;;;;;12.88;10.75;;;18.10;99.90;;;;;;5030010;28;20140;-61
2021/07/23 07:51:31;;;;;;;12.52;10.05;;;18.20;99.90;;;;;;5032222;28;20499;-59
2021/07/23 07:54:23;;;;;;;11.32;9.18;;;18.20;99.90;;;;;;5027348;28;20064;-60
2021/07/23 07:56:57;;;;;;;15.55;13.90;;;18.20;99.90;;;;;;5003218;28;20042;-59
2021/07/23 07:59:24;;;;;;;57.80;51.88;;;18.30;99.90;;;;;;5005210;28;20054;-59
2021/07/23 08:01:56;;;;;;;25.73;22.17;;;18.30;99.90;;;;;;5005033;28;20046;-57
2021/07/23 08:04:25;;;;;;;15.07;13.35;;;18.40;99.90;;;;;;4995183;28;20054;-59
2021/07/23 08:06:51;;;;;;;15.20;12.20;;;18.50;99.90;;;;;;5004952;28;20049;-59
2021/07/23 08:09:20;;;;;;;12.73;11.38;;;18.60;99.90;;;;;;4995240;28;20136;-59
2021/07/23 08:11:49;;;;;;;14.50;12.63;;;18.60;99.90;;;;;;5000435;28;20042;-58
2021/07/23 08:14:30;;;;;;;13.73;12.07;;;18.70;99.90;;;;;;4995290;28;20096;-59
2021/07/23 08:16:56;;;;;;;14.02;12.57;;;18.70;99.90;;;;;;5010829;28;20133;-57
2021/07/23 08:19:23;;;;;;;13.68;12.27;;;18.60;99.90;;;;;;5004781;28;20049;-59
2021/07/23 08:21:58;;;;;;;14.38;12.82;;;18.70;99.90;;;;;;4995776;28;20046;-59
2021/07/23 08:24:25;;;;;;;15.88;13.35;;;18.70;99.90;;;;;;5005019;28;20058;-59
2021/07/23 08:26:54;;;;;;;16.30;14.60;;;18.70;99.90;;;;;;4995977;28;20089;-58
2021/07/23 08:29:24;;;;;;;14.68;12.88;;;18.70;99.90;;;;;;4990304;28;20137;-58
2021/07/23 08:31:50;;;;;;;16.33;13.77;;;18.60;99.90;;;;;;4992034;28;20057;-59
2021/07/23 08:34:21;;;;;;;15.80;13.82;;;18.70;99.90;;;;;;5012736;28;20050;-60
2021/07/23 08:36:50;;;;;;;15.93;14.32;;;18.70;99.90;;;;;;5027959;28;20045;-60
2021/07/23 08:39:19;;;;;;;14.38;12.95;;;18.80;99.90;;;;;;5035998;28;20140;-60
2021/07/23 08:41:48;;;;;;;16.10;14.40;;;18.80;99.90;;;;;;5043169;28;20049;-60
2021/07/23 08:44:16;;;;;;;16.13;14.50;;;18.80;99.90;;;;;;5020413;28;20068;-55
2021/07/23 08:46:50;;;;;;;18.35;16.40;;;18.80;99.90;;;;;;5040476;28;20042;-54
2021/07/23 08:49:24;;;;;;;15.15;13.10;;;18.80;99.90;;;;;;5026349;28;20048;-55
2021/07/23 08:51:52;;;;;;;19.17;17.35;;;18.90;99.90;;;;;;5029774;28;20048;-55
2021/07/23 08:54:18;;;;;;;14.88;13.38;;;18.90;99.90;;;;;;5025851;28;20085;-56
2021/07/23 08:56:46;;;;;;;17.42;15.55;;;18.80;99.90;;;;;;5019125;28;20136;-55
2021/07/23 08:59:13;;;;;;;16.05;14.40;;;18.80;99.90;;;;;;5025476;28;20712;-54
2021/07/23 09:02:01;;;;;;;21.92;19.67;;;18.80;99.90;;;;;;5030215;28;20053;-55
2021/07/23 09:04:37;;;;;;;15.73;14.13;;;18.80;99.90;;;;;;5028701;28;20052;-55
2021/07/23 09:07:23;;;;;;;19.08;17.05;;;18.90;99.90;;;;;;5005339;28;20160;-55
2021/07/23 09:10:03;;;;;;;22.15;15.52;;;18.90;99.90;;;;;;4999004;28;20541;-54
2021/07/23 09:12:43;;;;;;;14.55;13.00;;;18.90;99.90;;;;;;5013147;28;20054;-55
2021/07/23 09:15:17;;;;;;;16.80;13.80;;;19.00;99.90;;;;;;5038886;28;20578;-54
2021/07/23 09:17:46;;;;;;;12.80;11.25;;;19.10;99.90;;;;;;5021454;28;20058;-54
2021/07/23 09:20:19;;;;;;;13.57;10.98;;;19.20;99.90;;;;;;5006512;28;20078;-53
2021/07/23 09:22:52;;;;;;;12.45;10.32;;;19.40;99.90;;;;;;5003658;28;20057;-56
2021/07/23 09:25:35;;;;;;;13.30;11.05;;;19.20;99.90;;;;;;5013829;28;20795;-55
2021/07/23 09:28:18;;;;;;;22.10;18.42;;;19.40;99.90;;;;;;5020179;28;20089;-60
2021/07/23 09:30:44;;;;;;;13.32;11.93;;;19.50;99.90;;;;;;5034272;28;20068;-60
2021/07/23 09:33:11;;;;;;;14.02;12.60;;;19.40;99.90;;;;;;5026108;28;20053;-58
2021/07/23 09:35:54;;;;;;;16.33;14.65;;;19.60;99.90;;;;;;5018485;28;20098;-63
2021/07/23 09:38:22;;;;;;;11.88;10.65;;;19.70;99.90;;;;;;5027700;28;20046;-61
2021/07/23 09:40:52;;;;;;;14.07;12.07;;;19.70;99.90;;;;;;5017070;28;20053;-60
2021/07/23 09:43:34;;;;;;;14.65;11.43;;;19.80;99.90;;;;;;5024780;28;20136;-62
2021/07/23 09:46:18;;;;;;;12.18;10.57;;;19.80;99.90;;;;;;5042844;28;20056;-60
2021/07/23 09:48:51;;;;;;;13.63;11.15;;;19.90;99.90;;;;;;5026718;28;20054;-61
2021/07/23 09:51:22;;;;;;;11.70;9.85;;;19.90;99.90;;;;;;5027047;28;20053;-61
2021/07/23 09:53:49;;;;;;;10.73;9.60;;;19.80;99.90;;;;;;5027173;28;20412;-60
2021/07/23 09:56:17;;;;;;;11.13;9.93;;;19.90;99.90;;;;;;5027783;28;20103;-62
2021/07/23 09:58:50;;;;;;;14.63;9.55;;;20.10;99.90;;;;;;5026111;28;20057;-60
2021/07/23 10:01:22;;;;;;;10.40;8.52;;;20.30;99.90;;;;;;5027950;28;20613;-60
2021/07/23 10:03:52;;;;;;;11.68;9.00;;;20.20;99.90;;;;;;5028145;28;20041;-61
2021/07/23 10:06:26;;;;;;;11.45;9.00;;;20.30;99.90;;;;;;5026381;28;20112;-61
2021/07/23 10:09:00;;;;;;;10.75;8.70;;;20.50;99.90;;;;;;5042291;28;20167;-63
2021/07/23 10:11:27;;;;;;;8.77;7.88;;;20.50;99.90;;;;;;5027376;28;20533;-62
2021/07/23 10:13:58;;;;;;;9.15;8.13;;;20.60;99.90;;;;;;5027225;28;20148;-62
2021/07/23 10:16:27;;;;;;;8.10;7.05;;;20.50;99.90;;;;;;5024267;28;20092;-62
2021/07/23 10:18:59;;;;;;;10.75;8.30;;;20.60;99.90;;;;;;5043673;28;20053;-63
2021/07/23 10:21:27;;;;;;;10.95;7.47;;;20.80;99.90;;;;;;5028309;28;20045;-61
2021/07/23 10:23:54;;;;;;;11.82;7.82;;;20.90;99.90;;;;;;5014449;28;20058;-61
2021/07/23 10:26:29;;;;;;;9.90;7.68;;;21.20;99.90;;;;;;5009975;28;20077;-61
2021/07/23 10:28:57;;;;;;;9.68;7.95;;;21.10;99.90;;;;;;5027472;28;20115;-62
2021/07/23 10:31:31;;;;;;;11.60;7.85;;;21.20;99.90;;;;;;5028210;28;20057;-62
2021/07/23 10:34:02;;;;;;;8.20;7.35;;;21.40;99.90;;;;;;5042201;28;20188;-60
2021/07/23 10:36:30;;;;;;;12.00;7.70;;;21.60;99.90;;;;;;5026778;28;20057;-62
2021/07/23 10:39:05;;;;;;;9.30;6.65;;;21.60;99.90;;;;;;5042106;28;20053;-61
2021/07/23 10:41:39;;;;;;;8.63;7.43;;;21.50;98.30;;;;;;5033485;28;20484;-63
2021/07/23 10:44:12;;;;;;;9.13;7.05;;;21.60;99.20;;;;;;5027479;28;20132;-62
2021/07/23 10:46:47;;;;;;;7.97;7.18;;;21.40;99.60;;;;;;5026347;28;20077;-61
2021/07/23 10:49:31;;;;;;;9.38;7.38;;;21.50;99.30;;;;;;5029101;28;20057;-60
2021/07/23 10:52:01;;;;;;;9.38;6.45;;;21.50;97.80;;;;;;5027340;28;20049;-62
2021/07/23 10:54:35;;;;;;;8.88;6.53;;;21.60;98.20;;;;;;5025990;28;20052;-60
2021/07/23 10:57:01;;;;;;;7.88;7.07;;;21.50;96.30;;;;;;5026412;28;20049;-62
2021/07/23 10:59:39;;;;;;;11.82;6.72;;;21.50;99.80;;;;;;5025570;28;20046;-61
2021/07/23 11:02:31;;;;;;;10.02;6.80;;;21.50;97.30;;;;;;5042382;28;20494;-60
2021/07/23 11:05:11;;;;;;;7.30;6.28;;;21.60;96.00;;;;;;5026866;28;20049;-62
2021/07/23 11:07:37;;;;;;;13.75;11.85;;;21.50;99.50;;;;;;5005532;28;20046;-61
2021/07/23 11:10:09;;;;;;;9.85;6.60;;;21.60;98.80;;;;;;5014363;28;20061;-61
2021/07/23 11:12:45;;;;;;;10.23;8.50;;;21.90;97.40;;;;;;5026757;28;20501;-61
2021/07/23 11:15:13;;;;;;;7.80;5.88;;;22.10;95.50;;;;;;5026280;28;20041;-61
2021/07/23 11:17:54;;;;;;;9.07;6.88;;;22.60;95.00;;;;;;5027043;28;20053;-62
2021/07/23 11:20:26;;;;;;;9.27;7.25;;;23.40;94.40;;;;;;5026463;28;20065;-62
2021/07/23 11:22:53;;;;;;;9.30;6.55;;;23.60;89.70;;;;;;5026465;28;20149;-61
2021/07/23 11:25:21;;;;;;;10.60;8.20;;;23.70;88.70;;;;;;5030900;28;20061;-61
2021/07/23 11:27:53;;;;;;;12.23;9.93;;;23.70;84.30;;;;;;5005113;28;20046;-59
2021/07/23 11:30:26;;;;;;;8.75;5.72;;;23.50;81.00;;;;;;5022919;28;20821;-61
2021/07/23 11:32:56;;;;;;;9.00;7.65;;;23.40;80.70;;;;;;5029029;28;20704;-61
2021/07/23 11:35:27;;;;;;;9.18;7.07;;;23.20;82.90;;;;;;5045536;28;20450;-60
2021/07/23 11:37:57;;;;;;;7.07;5.43;;;23.10;83.50;;;;;;5029861;28;20080;-61
2021/07/23 11:40:27;;;;;;;9.40;7.75;;;23.10;83.10;;;;;;5029824;28;20646;-61
2021/07/23 11:42:56;;;;;;;9.50;5.63;;;22.80;82.60;;;;;;5030053;28;20140;-59
2021/07/23 11:45:39;;;;;;;9.75;8.55;;;22.80;82.40;;;;;;5030393;28;20061;-61
2021/07/23 11:48:13;;;;;;;9.05;7.00;;;23.00;82.70;;;;;;5029327;28;20084;-63
2021/07/23 11:51:00;;;;;;;9.10;7.78;;;23.10;83.00;;;;;;5029727;28;20053;-61
2021/07/23 11:53:26;;;;;;;7.47;5.78;;;23.00;80.40;;;;;;5030239;28;20053;-62
2021/07/23 11:55:53;;;;;;;9.82;7.78;;;23.10;85.40;;;;;;5030417;28;20084;-61
2021/07/23 11:58:23;;;;;;;6.38;5.22;;;22.80;81.40;;;;;;5029293;28;20132;-62
2021/07/23 12:00:54;;;;;;;6.50;5.03;;;23.10;83.40;;;;;;5033857;28;20041;-62
2021/07/23 12:03:25;;;;;;;8.00;5.25;;;23.40;79.60;;;;;;5025401;28;20406;-60
2021/07/23 12:05:52;;;;;;;10.02;7.93;;;23.90;75.50;;;;;;5026298;28;20042;-63
2021/07/23 12:08:22;;;;;;;8.15;5.55;;;23.90;76.00;;;;;;5029380;28;20501;-60
2021/07/23 12:10:54;;;;;;;7.10;5.63;;;24.30;75.80;;;;;;5033000;28;20060;-62
2021/07/23 12:13:23;;;;;;;6.40;5.05;;;24.20;74.60;;;;;;5027469;28;20608;-60
2021/07/23 12:15:56;;;;;;;6.70;5.53;;;24.20;75.00;;;;;;5022988;28;20052;-62
2021/07/23 12:18:31;;;;;;;7.50;5.20;;;23.90;71.70;;;;;;5026728;28;20490;-60
2021/07/23 12:21:09;;;;;;;8.85;7.18;;;23.70;72.40;;;;;;5027759;28;20101;-60
2021/07/23 12:23:42;;;;;;;6.63;4.88;;;23.60;71.50;;;;;;5032801;28;20503;-61
2021/07/23 12:26:25;;;;;;;14.52;9.05;;;23.80;75.60;;;;;;5011654;28;20784;-62
2021/07/23 12:28:56;;;;;;;7.97;6.07;;;23.70;76.00;;;;;;5035457;28;20091;-60
2021/07/23 12:31:26;;;;;;;8.82;6.10;;;23.80;73.40;;;;;;5034207;28;20516;-60
2021/07/23 12:34:08;;;;;;;12.25;8.27;;;23.90;74.40;;;;;;5047277;28;20132;-61
2021/07/23 12:36:51;;;;;;;15.70;14.10;;;24.70;69.10;;;;;;5034602;28;20120;-61
2021/07/23 12:39:22;;;;;;;10.73;5.80;;;25.30;72.80;;;;;;5020598;28;20175;-61
2021/07/23 12:41:49;;;;;;;8.20;5.18;;;25.90;69.50;;;;;;5022867;28;20056;-61
2021/07/23 12:44:16;;;;;;;9.35;6.53;;;26.00;67.70;;;;;;5035509;28;20049;-60
2021/07/23 12:46:49;;;;;;;12.70;10.35;;;25.80;66.70;;;;;;5027136;28;20091;-62
2021/07/23 12:49:23;;;;;;;6.93;5.93;;;25.90;63.20;;;;;;5032199;28;20044;-60